sensor_id;sensor_type;location;lat;lon;timestamp;pressure;altitude;pressure_sealevel;temperature
12875;BMP180;6505;51.114;13.128;2023-04-29T00:01:11;99010.00;;;18.00
12875;BMP180;6505;51.114;13.128;2023-04-29T00:03:40;98928.00;;;18.00
12875;BMP180;6505;51.114;13.128;2023-04-29T00:06:11;98987.00;;;17.70
12875;BMP180;6505;51.114;13.128;2023-04-29T00:08:40;98887.00;;;18.00
12875;BMP180;6505;51.114;13.128;2023-04-29T00:11:09;98989.00;;;18.00
12875;BMP180;6505;51.114;13.128;2023-04-29T00:13:39;98915.00;;;17.90
12875;BMP180;6505;51.114;13.128;2023-04-29T00:16:08;98897.00;;;17.90
12875;BMP180;6505;51.114;13.128;2023-04-29T00:18:37;98890.00;;;17.90
12875;BMP180;6505;51.114;13.128;2023-04-29T00:21:05;98902.00;;;18.00
12875;BMP180;6505;51.114;13.128;2023-04-29T00:23:34;98893.00;;;18.00
12875;BMP180;6505;51.114;13.128;2023-04-29T00:26:03;98914.00;;;18.00
12875;BMP180;6505;51.114;13.128;2023-04-29T00:28:31;98874.00;;;18.00
12875;BMP180;6505;51.114;13.128;2023-04-29T00:31:01;98917.00;;;17.90
12875;BMP180;6505;51.114;13.128;2023-04-29T00:33:30;98851.00;;;17.60
12875;BMP180;6505;51.114;13.128;2023-04-29T00:35:59;98939.00;;;18.00
12875;BMP180;6505;51.114;13.128;2023-04-29T00:38:28;98897.00;;;17.90
12875;BMP180;6505;51.114;13.128;2023-04-29T00:40:56;98933.00;;;17.90
12875;BMP180;6505;51.114;13.128;2023-04-29T00:43:25;98923.00;;;17.50
12875;BMP180;6505;51.114;13.128;2023-04-29T00:45:53;98945.00;;;17.90
12875;BMP180;6505;51.114;13.128;2023-04-29T00:48:23;98926.00;;;17.90
12875;BMP180;6505;51.114;13.128;2023-04-29T00:50:52;98947.00;;;17.90
12875;BMP180;6505;51.114;13.128;2023-04-29T00:53:20;98900.00;;;17.90
12875;BMP180;6505;51.114;13.128;2023-04-29T00:55:50;98910.00;;;17.90
12875;BMP180;6505;51.114;13.128;2023-04-29T00:58:19;98876.00;;;17.90
12875;BMP180;6505;51.114;13.128;2023-04-29T01:00:49;98846.00;;;17.80
12875;BMP180;6505;51.114;13.128;2023-04-29T01:03:31;98957.00;;;17.90
12875;BMP180;6505;51.114;13.128;2023-04-29T01:06:15;98891.00;;;17.90
12875;BMP180;6505;51.114;13.128;2023-04-29T01:09:26;98925.00;;;17.90
12875;BMP180;6505;51.114;13.128;2023-04-29T01:12:10;98958.00;;;17.80
12875;BMP180;6505;51.114;13.128;2023-04-29T01:14:47;98971.00;;;17.80
12875;BMP180;6505;51.114;13.128;2023-04-29T01:17:27;98947.00;;;17.80
12875;BMP180;6505;51.114;13.128;2023-04-29T01:20:00;98951.00;;;17.90
12875;BMP180;6505;51.114;13.128;2023-04-29T01:26:11;98869.00;;;17.70
12875;BMP180;6505;51.114;13.128;2023-04-29T01:29:50;98988.00;;;17.70
12875;BMP180;6505;51.114;13.128;2023-04-29T01:32:33;98956.00;;;17.80
12875;BMP180;6505;51.114;13.128;2023-04-29T01:35:19;98964.00;;;17.80
12875;BMP180;6505;51.114;13.128;2023-04-29T01:37:58;98914.00;;;17.80
12875;BMP180;6505;51.114;13.128;2023-04-29T01:40:42;98949.00;;;17.70
12875;BMP180;6505;51.114;13.128;2023-04-29T01:43:21;98942.00;;;17.60
12875;BMP180;6505;51.114;13.128;2023-04-29T01:45:52;98913.00;;;17.50
12875;BMP180;6505;51.114;13.128;2023-04-29T01:48:23;98933.00;;;17.80
12875;BMP180;6505;51.114;13.128;2023-04-29T01:50:52;98955.00;;;17.60
12875;BMP180;6505;51.114;13.128;2023-04-29T01:53:21;98931.00;;;17.70
12875;BMP180;6505;51.114;13.128;2023-04-29T01:55:49;98971.00;;;17.70
12875;BMP180;6505;51.114;13.128;2023-04-29T01:58:23;98911.00;;;17.40
12875;BMP180;6505;51.114;13.128;2023-04-29T02:01:24;98896.00;;;17.50
12875;BMP180;6505;51.114;13.128;2023-04-29T02:03:53;98947.00;;;17.50
12875;BMP180;6505;51.114;13.128;2023-04-29T02:06:22;99028.00;;;17.60
12875;BMP180;6505;51.114;13.128;2023-04-29T02:08:55;98992.00;;;17.90
12875;BMP180;6505;51.114;13.128;2023-04-29T02:11:24;98913.00;;;17.80
12875;BMP180;6505;51.114;13.128;2023-04-29T02:13:56;98872.00;;;17.80
12875;BMP180;6505;51.114;13.128;2023-04-29T02:16:25;98921.00;;;17.90
12875;BMP180;6505;51.114;13.128;2023-04-29T02:19:00;98948.00;;;17.60
12875;BMP180;6505;51.114;13.128;2023-04-29T02:21:31;98929.00;;;17.90
12875;BMP180;6505;51.114;13.128;2023-04-29T02:24:01;98945.00;;;17.90
12875;BMP180;6505;51.114;13.128;2023-04-29T02:26:29;98953.00;;;17.90
12875;BMP180;6505;51.114;13.128;2023-04-29T02:28:59;98957.00;;;17.90
12875;BMP180;6505;51.114;13.128;2023-04-29T02:31:29;98934.00;;;17.90
12875;BMP180;6505;51.114;13.128;2023-04-29T02:33:58;98943.00;;;17.90
12875;BMP180;6505;51.114;13.128;2023-04-29T02:36:27;98945.00;;;17.90
12875;BMP180;6505;51.114;13.128;2023-04-29T02:38:55;98897.00;;;17.90
12875;BMP180;6505;51.114;13.128;2023-04-29T02:41:23;98967.00;;;17.90
12875;BMP180;6505;51.114;13.128;2023-04-29T02:43:52;98947.00;;;17.90
12875;BMP180;6505;51.114;13.128;2023-04-29T02:46:21;98908.00;;;17.90
12875;BMP180;6505;51.114;13.128;2023-04-29T02:48:50;98942.00;;;17.70
12875;BMP180;6505;51.114;13.128;2023-04-29T02:51:18;98952.00;;;17.90
12875;BMP180;6505;51.114;13.128;2023-04-29T02:53:47;99005.00;;;17.90
12875;BMP180;6505;51.114;13.128;2023-04-29T02:56:15;98963.00;;;17.90
12875;BMP180;6505;51.114;13.128;2023-04-29T02:58:44;98958.00;;;17.80
12875;BMP180;6505;51.114;13.128;2023-04-29T03:01:12;98931.00;;;17.90
12875;BMP180;6505;51.114;13.128;2023-04-29T03:03:42;98962.00;;;17.90
12875;BMP180;6505;51.114;13.128;2023-04-29T03:06:10;98996.00;;;17.90
12875;BMP180;6505;51.114;13.128;2023-04-29T03:08:39;98973.00;;;17.80
12875;BMP180;6505;51.114;13.128;2023-04-29T03:11:07;98924.00;;;17.90
12875;BMP180;6505;51.114;13.128;2023-04-29T03:13:35;98962.00;;;17.90
12875;BMP180;6505;51.114;13.128;2023-04-29T03:16:06;98934.00;;;17.90
12875;BMP180;6505;51.114;13.128;2023-04-29T03:18:35;98968.00;;;17.90
12875;BMP180;6505;51.114;13.128;2023-04-29T03:21:05;98982.00;;;17.90
12875;BMP180;6505;51.114;13.128;2023-04-29T03:23:33;98948.00;;;17.70
12875;BMP180;6505;51.114;13.128;2023-04-29T03:26:03;98947.00;;;17.90
12875;BMP180;6505;51.114;13.128;2023-04-29T03:28:32;98946.00;;;17.90
12875;BMP180;6505;51.114;13.128;2023-04-29T03:31:00;98907.00;;;17.90
12875;BMP180;6505;51.114;13.128;2023-04-29T03:33:30;98949.00;;;17.90
12875;BMP180;6505;51.114;13.128;2023-04-29T03:35:58;98953.00;;;17.70
12875;BMP180;6505;51.114;13.128;2023-04-29T03:38:36;98913.00;;;17.90
12875;BMP180;6505;51.114;13.128;2023-04-29T03:41:04;98915.00;;;17.90
12875;BMP180;6505;51.114;13.128;2023-04-29T03:43:33;98989.00;;;17.90
12875;BMP180;6505;51.114;13.128;2023-04-29T03:46:01;98929.00;;;17.90
12875;BMP180;6505;51.114;13.128;2023-04-29T03:48:30;98923.00;;;17.90
12875;BMP180;6505;51.114;13.128;2023-04-29T03:50:59;98958.00;;;17.90
12875;BMP180;6505;51.114;13.128;2023-04-29T03:53:28;98936.00;;;17.90
12875;BMP180;6505;51.114;13.128;2023-04-29T03:55:58;98967.00;;;17.80
12875;BMP180;6505;51.114;13.128;2023-04-29T03:58:26;98970.00;;;17.90
12875;BMP180;6505;51.114;13.128;2023-04-29T04:00:55;98891.00;;;17.90
12875;BMP180;6505;51.114;13.128;2023-04-29T04:03:32;98974.00;;;17.90
12875;BMP180;6505;51.114;13.128;2023-04-29T04:06:00;98940.00;;;17.90
12875;BMP180;6505;51.114;13.128;2023-04-29T04:08:29;98962.00;;;17.90
12875;BMP180;6505;51.114;13.128;2023-04-29T04:11:07;98969.00;;;17.90
12875;BMP180;6505;51.114;13.128;2023-04-29T04:13:41;98907.00;;;17.90
12875;BMP180;6505;51.114;13.128;2023-04-29T04:16:10;98903.00;;;17.90
12875;BMP180;6505;51.114;13.128;2023-04-29T04:18:40;98954.00;;;17.90
12875;BMP180;6505;51.114;13.128;2023-04-29T04:21:25;98986.00;;;17.80
12875;BMP180;6505;51.114;13.128;2023-04-29T04:24:10;98851.00;;;17.80
12875;BMP180;6505;51.114;13.128;2023-04-29T04:26:49;98859.00;;;17.80
12875;BMP180;6505;51.114;13.128;2023-04-29T04:29:28;98901.00;;;17.90
12875;BMP180;6505;51.114;13.128;2023-04-29T04:32:01;98903.00;;;17.60
12875;BMP180;6505;51.114;13.128;2023-04-29T04:34:30;98945.00;;;17.70
12875;BMP180;6505;51.114;13.128;2023-04-29T04:37:00;98914.00;;;17.90
12875;BMP180;6505;51.114;13.128;2023-04-29T04:39:30;98969.00;;;17.90
12875;BMP180;6505;51.114;13.128;2023-04-29T04:42:00;98955.00;;;17.90
12875;BMP180;6505;51.114;13.128;2023-04-29T04:44:32;98946.00;;;17.90
12875;BMP180;6505;51.114;13.128;2023-04-29T04:47:08;98906.00;;;17.90
12875;BMP180;6505;51.114;13.128;2023-04-29T04:50:00;98967.00;;;17.90
12875;BMP180;6505;51.114;13.128;2023-04-29T04:52:30;98930.00;;;17.90
12875;BMP180;6505;51.114;13.128;2023-04-29T04:55:09;98976.00;;;17.90
12875;BMP180;6505;51.114;13.128;2023-04-29T04:57:44;98996.00;;;17.90
12875;BMP180;6505;51.114;13.128;2023-04-29T05:00:14;98979.00;;;17.90
12875;BMP180;6505;51.114;13.128;2023-04-29T05:02:42;98937.00;;;17.80
12875;BMP180;6505;51.114;13.128;2023-04-29T05:05:13;98991.00;;;17.90
12875;BMP180;6505;51.114;13.128;2023-04-29T05:07:42;99002.00;;;17.90
12875;BMP180;6505;51.114;13.128;2023-04-29T05:10:14;98948.00;;;17.90
12875;BMP180;6505;51.114;13.128;2023-04-29T05:12:48;98964.00;;;17.90
12875;BMP180;6505;51.114;13.128;2023-04-29T05:15:21;98980.00;;;17.90
12875;BMP180;6505;51.114;13.128;2023-04-29T05:18:31;99033.00;;;17.90
12875;BMP180;6505;51.114;13.128;2023-04-29T05:21:03;99022.00;;;17.90
12875;BMP180;6505;51.114;13.128;2023-04-29T05:23:36;99032.00;;;18.00
12875;BMP180;6505;51.114;13.128;2023-04-29T05:26:06;98930.00;;;17.90
12875;BMP180;6505;51.114;13.128;2023-04-29T05:28:44;99009.00;;;18.00
12875;BMP180;6505;51.114;13.128;2023-04-29T05:31:13;99005.00;;;17.80
12875;BMP180;6505;51.114;13.128;2023-04-29T05:33:41;98966.00;;;18.00
12875;BMP180;6505;51.114;13.128;2023-04-29T05:36:10;98976.00;;;18.00
12875;BMP180;6505;51.114;13.128;2023-04-29T05:38:38;98989.00;;;18.00
12875;BMP180;6505;51.114;13.128;2023-04-29T05:41:08;99027.00;;;18.00
12875;BMP180;6505;51.114;13.128;2023-04-29T05:43:49;99009.00;;;18.00
12875;BMP180;6505;51.114;13.128;2023-04-29T05:46:17;98984.00;;;18.00
12875;BMP180;6505;51.114;13.128;2023-04-29T05:48:47;99027.00;;;18.10
12875;BMP180;6505;51.114;13.128;2023-04-29T05:51:16;99053.00;;;18.10
12875;BMP180;6505;51.114;13.128;2023-04-29T05:53:45;98958.00;;;18.10
12875;BMP180;6505;51.114;13.128;2023-04-29T05:56:13;98963.00;;;18.10
12875;BMP180;6505;51.114;13.128;2023-04-29T05:58:42;99023.00;;;18.10
12875;BMP180;6505;51.114;13.128;2023-04-29T06:01:12;98928.00;;;18.10
12875;BMP180;6505;51.114;13.128;2023-04-29T06:03:40;99035.00;;;18.10
12875;BMP180;6505;51.114;13.128;2023-04-29T06:06:25;99019.00;;;18.10
12875;BMP180;6505;51.114;13.128;2023-04-29T06:09:20;99029.00;;;18.10
12875;BMP180;6505;51.114;13.128;2023-04-29T06:12:00;99024.00;;;18.10
12875;BMP180;6505;51.114;13.128;2023-04-29T06:14:29;98983.00;;;18.10
12875;BMP180;6505;51.114;13.128;2023-04-29T06:17:01;99048.00;;;18.10
12875;BMP180;6505;51.114;13.128;2023-04-29T06:19:29;99047.00;;;18.10
12875;BMP180;6505;51.114;13.128;2023-04-29T06:21:59;99038.00;;;18.10
12875;BMP180;6505;51.114;13.128;2023-04-29T06:24:28;99042.00;;;18.10
12875;BMP180;6505;51.114;13.128;2023-04-29T06:26:57;99075.00;;;18.10
12875;BMP180;6505;51.114;13.128;2023-04-29T06:29:26;99019.00;;;18.20
12875;BMP180;6505;51.114;13.128;2023-04-29T06:31:54;99051.00;;;18.10
12875;BMP180;6505;51.114;13.128;2023-04-29T06:34:24;99053.00;;;18.20
12875;BMP180;6505;51.114;13.128;2023-04-29T06:37:11;99072.00;;;18.20
12875;BMP180;6505;51.114;13.128;2023-04-29T06:39:52;99067.00;;;18.10
12875;BMP180;6505;51.114;13.128;2023-04-29T06:42:39;99052.00;;;18.20
12875;BMP180;6505;51.114;13.128;2023-04-29T06:45:44;99067.00;;;18.10
12875;BMP180;6505;51.114;13.128;2023-04-29T06:48:20;99061.00;;;18.10
12875;BMP180;6505;51.114;13.128;2023-04-29T06:50:51;99075.00;;;18.20
12875;BMP180;6505;51.114;13.128;2023-04-29T06:53:20;99060.00;;;18.20
12875;BMP180;6505;51.114;13.128;2023-04-29T06:55:49;99089.00;;;18.20
12875;BMP180;6505;51.114;13.128;2023-04-29T06:58:19;99068.00;;;18.20
12875;BMP180;6505;51.114;13.128;2023-04-29T07:00:49;99104.00;;;18.20
12875;BMP180;6505;51.114;13.128;2023-04-29T07:03:18;99066.00;;;18.20
12875;BMP180;6505;51.114;13.128;2023-04-29T07:05:46;99069.00;;;18.20
12875;BMP180;6505;51.114;13.128;2023-04-29T07:08:16;99043.00;;;18.20
12875;BMP180;6505;51.114;13.128;2023-04-29T07:10:53;99043.00;;;18.20
12875;BMP180;6505;51.114;13.128;2023-04-29T07:13:22;99043.00;;;18.30
12875;BMP180;6505;51.114;13.128;2023-04-29T07:15:51;99074.00;;;18.30
12875;BMP180;6505;51.114;13.128;2023-04-29T07:18:19;99050.00;;;18.30
12875;BMP180;6505;51.114;13.128;2023-04-29T07:20:47;99070.00;;;18.30
12875;BMP180;6505;51.114;13.128;2023-04-29T07:23:20;99109.00;;;18.30
12875;BMP180;6505;51.114;13.128;2023-04-29T07:25:48;99067.00;;;18.30
12875;BMP180;6505;51.114;13.128;2023-04-29T07:28:17;99088.00;;;18.30
12875;BMP180;6505;51.114;13.128;2023-04-29T07:30:51;99134.00;;;18.30
12875;BMP180;6505;51.114;13.128;2023-04-29T07:33:20;99079.00;;;18.40
12875;BMP180;6505;51.114;13.128;2023-04-29T07:35:48;99097.00;;;18.40
12875;BMP180;6505;51.114;13.128;2023-04-29T07:38:16;99120.00;;;18.40
12875;BMP180;6505;51.114;13.128;2023-04-29T07:40:47;99088.00;;;18.30
12875;BMP180;6505;51.114;13.128;2023-04-29T07:43:17;99090.00;;;18.40
12875;BMP180;6505;51.114;13.128;2023-04-29T07:45:51;99117.00;;;18.40
12875;BMP180;6505;51.114;13.128;2023-04-29T07:48:20;99094.00;;;18.30
12875;BMP180;6505;51.114;13.128;2023-04-29T07:50:48;99100.00;;;18.40
12875;BMP180;6505;51.114;13.128;2023-04-29T07:53:16;99053.00;;;18.40
12875;BMP180;6505;51.114;13.128;2023-04-29T07:55:46;99073.00;;;18.40
12875;BMP180;6505;51.114;13.128;2023-04-29T07:58:15;99115.00;;;18.40
12875;BMP180;6505;51.114;13.128;2023-04-29T08:00:47;99067.00;;;18.20
12875;BMP180;6505;51.114;13.128;2023-04-29T08:03:18;99100.00;;;18.40
12875;BMP180;6505;51.114;13.128;2023-04-29T08:05:47;99118.00;;;18.20
12875;BMP180;6505;51.114;13.128;2023-04-29T08:08:20;99138.00;;;18.30
12875;BMP180;6505;51.114;13.128;2023-04-29T08:10:52;99091.00;;;18.50
12875;BMP180;6505;51.114;13.128;2023-04-29T08:13:20;99132.00;;;18.50
12875;BMP180;6505;51.114;13.128;2023-04-29T08:15:50;99166.00;;;18.50
12875;BMP180;6505;51.114;13.128;2023-04-29T08:18:22;99088.00;;;18.30
12875;BMP180;6505;51.114;13.128;2023-04-29T08:20:51;99112.00;;;18.50
12875;BMP180;6505;51.114;13.128;2023-04-29T08:23:20;99118.00;;;18.40
12875;BMP180;6505;51.114;13.128;2023-04-29T08:25:49;99159.00;;;18.40
12875;BMP180;6505;51.114;13.128;2023-04-29T08:28:22;99182.00;;;18.50
12875;BMP180;6505;51.114;13.128;2023-04-29T08:30:50;99119.00;;;18.50
12875;BMP180;6505;51.114;13.128;2023-04-29T08:33:19;99153.00;;;18.50
12875;BMP180;6505;51.114;13.128;2023-04-29T08:35:47;99202.00;;;18.20
12875;BMP180;6505;51.114;13.128;2023-04-29T08:38:16;99180.00;;;18.50
12875;BMP180;6505;51.114;13.128;2023-04-29T08:40:45;99167.00;;;18.50
12875;BMP180;6505;51.114;13.128;2023-04-29T08:43:15;99184.00;;;18.50
12875;BMP180;6505;51.114;13.128;2023-04-29T08:45:47;99155.00;;;18.50
12875;BMP180;6505;51.114;13.128;2023-04-29T08:48:16;99222.00;;;18.40
12875;BMP180;6505;51.114;13.128;2023-04-29T08:50:45;99190.00;;;18.50
12875;BMP180;6505;51.114;13.128;2023-04-29T08:53:13;99096.00;;;18.40
12875;BMP180;6505;51.114;13.128;2023-04-29T08:55:46;99191.00;;;18.50
12875;BMP180;6505;51.114;13.128;2023-04-29T08:58:15;99138.00;;;18.40
12875;BMP180;6505;51.114;13.128;2023-04-29T09:00:46;99178.00;;;18.50
12875;BMP180;6505;51.114;13.128;2023-04-29T09:03:23;99158.00;;;18.50
12875;BMP180;6505;51.114;13.128;2023-04-29T09:06:02;99235.00;;;18.50
12875;BMP180;6505;51.114;13.128;2023-04-29T09:08:36;99145.00;;;18.50
12875;BMP180;6505;51.114;13.128;2023-04-29T09:11:10;99092.00;;;18.30
12875;BMP180;6505;51.114;13.128;2023-04-29T09:13:41;99174.00;;;18.50
12875;BMP180;6505;51.114;13.128;2023-04-29T09:16:15;99124.00;;;18.10
12875;BMP180;6505;51.114;13.128;2023-04-29T09:18:46;99234.00;;;18.50
12875;BMP180;6505;51.114;13.128;2023-04-29T09:21:17;99185.00;;;18.50
12875;BMP180;6505;51.114;13.128;2023-04-29T09:23:50;99213.00;;;18.50
12875;BMP180;6505;51.114;13.128;2023-04-29T09:26:22;99198.00;;;18.50
12875;BMP180;6505;51.114;13.128;2023-04-29T09:29:09;99213.00;;;18.40
12875;BMP180;6505;51.114;13.128;2023-04-29T09:31:43;99219.00;;;18.50
12875;BMP180;6505;51.114;13.128;2023-04-29T09:34:12;99219.00;;;18.40
12875;BMP180;6505;51.114;13.128;2023-04-29T09:36:43;99171.00;;;18.50
12875;BMP180;6505;51.114;13.128;2023-04-29T09:39:14;99141.00;;;18.40
12875;BMP180;6505;51.114;13.128;2023-04-29T09:41:59;99236.00;;;18.50
12875;BMP180;6505;51.114;13.128;2023-04-29T09:44:32;99242.00;;;18.50
12875;BMP180;6505;51.114;13.128;2023-04-29T09:47:05;99235.00;;;18.50
12875;BMP180;6505;51.114;13.128;2023-04-29T09:49:37;99240.00;;;18.50
12875;BMP180;6505;51.114;13.128;2023-04-29T09:52:08;99257.00;;;18.60
12875;BMP180;6505;51.114;13.128;2023-04-29T09:54:39;99218.00;;;18.50
12875;BMP180;6505;51.114;13.128;2023-04-29T09:57:10;99215.00;;;18.60
12875;BMP180;6505;51.114;13.128;2023-04-29T09:59:40;99255.00;;;18.30
12875;BMP180;6505;51.114;13.128;2023-04-29T10:02:14;99279.00;;;18.60
12875;BMP180;6505;51.114;13.128;2023-04-29T10:04:46;99272.00;;;18.60
12875;BMP180;6505;51.114;13.128;2023-04-29T10:07:16;99273.00;;;18.50
12875;BMP180;6505;51.114;13.128;2023-04-29T10:09:46;99263.00;;;18.60
12875;BMP180;6505;51.114;13.128;2023-04-29T10:12:17;99246.00;;;18.40
12875;BMP180;6505;51.114;13.128;2023-04-29T10:14:54;99288.00;;;18.60
12875;BMP180;6505;51.114;13.128;2023-04-29T10:17:48;99211.00;;;18.50
12875;BMP180;6505;51.114;13.128;2023-04-29T10:20:23;99211.00;;;18.70
12875;BMP180;6505;51.114;13.128;2023-04-29T10:22:55;99281.00;;;18.70
12875;BMP180;6505;51.114;13.128;2023-04-29T10:25:25;99252.00;;;18.30
12875;BMP180;6505;51.114;13.128;2023-04-29T10:27:57;99239.00;;;18.70
12875;BMP180;6505;51.114;13.128;2023-04-29T10:30:28;99257.00;;;18.50
12875;BMP180;6505;51.114;13.128;2023-04-29T10:33:03;99248.00;;;18.40
12875;BMP180;6505;51.114;13.128;2023-04-29T10:35:33;99305.00;;;18.70
12875;BMP180;6505;51.114;13.128;2023-04-29T10:38:12;99269.00;;;18.60
12875;BMP180;6505;51.114;13.128;2023-04-29T10:40:48;99289.00;;;18.80
12875;BMP180;6505;51.114;13.128;2023-04-29T10:43:24;99241.00;;;18.70
12875;BMP180;6505;51.114;13.128;2023-04-29T10:46:19;99289.00;;;18.70
12875;BMP180;6505;51.114;13.128;2023-04-29T10:48:56;99293.00;;;18.50
12875;BMP180;6505;51.114;13.128;2023-04-29T10:51:30;99280.00;;;18.60
12875;BMP180;6505;51.114;13.128;2023-04-29T10:54:06;99326.00;;;18.70
12875;BMP180;6505;51.114;13.128;2023-04-29T10:56:41;99335.00;;;18.50
12875;BMP180;6505;51.114;13.128;2023-04-29T10:59:13;99306.00;;;18.80
12875;BMP180;6505;51.114;13.128;2023-04-29T11:01:46;99321.00;;;18.80
12875;BMP180;6505;51.114;13.128;2023-04-29T11:04:19;99323.00;;;18.90
12875;BMP180;6505;51.114;13.128;2023-04-29T11:06:54;99309.00;;;18.90
12875;BMP180;6505;51.114;13.128;2023-04-29T11:09:25;99326.00;;;18.80
12875;BMP180;6505;51.114;13.128;2023-04-29T11:12:00;99332.00;;;18.80
12875;BMP180;6505;51.114;13.128;2023-04-29T11:14:36;99321.00;;;18.70
12875;BMP180;6505;51.114;13.128;2023-04-29T11:17:08;99292.00;;;18.90
12875;BMP180;6505;51.114;13.128;2023-04-29T11:19:43;99343.00;;;18.50
12875;BMP180;6505;51.114;13.128;2023-04-29T11:22:26;99278.00;;;18.80
12875;BMP180;6505;51.114;13.128;2023-04-29T11:24:58;99275.00;;;18.90
12875;BMP180;6505;51.114;13.128;2023-04-29T11:27:30;99313.00;;;18.60
12875;BMP180;6505;51.114;13.128;2023-04-29T11:30:01;99330.00;;;18.40
12875;BMP180;6505;51.114;13.128;2023-04-29T11:32:44;99341.00;;;18.80
12875;BMP180;6505;51.114;13.128;2023-04-29T11:35:20;99389.00;;;18.90
12875;BMP180;6505;51.114;13.128;2023-04-29T11:38:11;99299.00;;;18.60
12875;BMP180;6505;51.114;13.128;2023-04-29T11:41:23;99370.00;;;18.80
12875;BMP180;6505;51.114;13.128;2023-04-29T11:43:55;99342.00;;;18.80
12875;BMP180;6505;51.114;13.128;2023-04-29T11:46:32;99403.00;;;18.80
12875;BMP180;6505;51.114;13.128;2023-04-29T11:49:06;99307.00;;;18.60
12875;BMP180;6505;51.114;13.128;2023-04-29T11:51:44;99328.00;;;18.80
12875;BMP180;6505;51.114;13.128;2023-04-29T11:54:15;99277.00;;;18.80
12875;BMP180;6505;51.114;13.128;2023-04-29T11:56:46;99406.00;;;18.80
12875;BMP180;6505;51.114;13.128;2023-04-29T11:59:23;99333.00;;;18.90
12875;BMP180;6505;51.114;13.128;2023-04-29T12:02:00;99323.00;;;18.80
12875;BMP180;6505;51.114;13.128;2023-04-29T12:08:07;99397.00;;;18.70
12875;BMP180;6505;51.114;13.128;2023-04-29T12:11:09;99444.00;;;18.80
12875;BMP180;6505;51.114;13.128;2023-04-29T12:13:41;99407.00;;;18.70
12875;BMP180;6505;51.114;13.128;2023-04-29T12:16:10;99454.00;;;18.80
12875;BMP180;6505;51.114;13.128;2023-04-29T12:18:40;99411.00;;;18.80
12875;BMP180;6505;51.114;13.128;2023-04-29T12:21:16;99415.00;;;18.70
12875;BMP180;6505;51.114;13.128;2023-04-29T12:23:51;99433.00;;;18.80
12875;BMP180;6505;51.114;13.128;2023-04-29T12:26:27;99365.00;;;18.80
12875;BMP180;6505;51.114;13.128;2023-04-29T12:29:02;99416.00;;;18.80
12875;BMP180;6505;51.114;13.128;2023-04-29T12:31:58;99345.00;;;18.80
12875;BMP180;6505;51.114;13.128;2023-04-29T12:34:40;99458.00;;;18.80
12875;BMP180;6505;51.114;13.128;2023-04-29T12:37:21;99343.00;;;18.80
12875;BMP180;6505;51.114;13.128;2023-04-29T12:40:12;99391.00;;;18.50
12875;BMP180;6505;51.114;13.128;2023-04-29T12:43:07;99408.00;;;18.70
12875;BMP180;6505;51.114;13.128;2023-04-29T12:45:44;99452.00;;;18.70
12875;BMP180;6505;51.114;13.128;2023-04-29T12:48:18;99380.00;;;18.60
12875;BMP180;6505;51.114;13.128;2023-04-29T12:51:04;99468.00;;;18.70
12875;BMP180;6505;51.114;13.128;2023-04-29T12:53:44;99427.00;;;18.70
12875;BMP180;6505;51.114;13.128;2023-04-29T12:56:19;99441.00;;;18.30
12875;BMP180;6505;51.114;13.128;2023-04-29T12:58:49;99413.00;;;18.50
12875;BMP180;6505;51.114;13.128;2023-04-29T13:01:25;99450.00;;;18.60
12875;BMP180;6505;51.114;13.128;2023-04-29T13:03:57;99432.00;;;18.60
12875;BMP180;6505;51.114;13.128;2023-04-29T13:06:33;99426.00;;;18.70
12875;BMP180;6505;51.114;13.128;2023-04-29T13:09:15;99464.00;;;18.60
12875;BMP180;6505;51.114;13.128;2023-04-29T13:12:08;99397.00;;;18.50
12875;BMP180;6505;51.114;13.128;2023-04-29T13:14:39;99424.00;;;18.50
12875;BMP180;6505;51.114;13.128;2023-04-29T13:17:15;99500.00;;;18.60
12875;BMP180;6505;51.114;13.128;2023-04-29T13:19:46;99492.00;;;18.60
12875;BMP180;6505;51.114;13.128;2023-04-29T13:22:19;99468.00;;;18.60
12875;BMP180;6505;51.114;13.128;2023-04-29T13:24:51;99413.00;;;18.40
12875;BMP180;6505;51.114;13.128;2023-04-29T13:27:23;99497.00;;;18.60
12875;BMP180;6505;51.114;13.128;2023-04-29T13:29:52;99468.00;;;18.60
12875;BMP180;6505;51.114;13.128;2023-04-29T13:33:14;99337.00;;;18.50
12875;BMP180;6505;51.114;13.128;2023-04-29T13:36:16;99359.00;;;18.50
12875;BMP180;6505;51.114;13.128;2023-04-29T13:39:17;99475.00;;;18.50
12875;BMP180;6505;51.114;13.128;2023-04-29T13:41:48;99492.00;;;18.50
12875;BMP180;6505;51.114;13.128;2023-04-29T13:44:18;99477.00;;;18.50
12875;BMP180;6505;51.114;13.128;2023-04-29T13:46:58;99477.00;;;18.50
12875;BMP180;6505;51.114;13.128;2023-04-29T13:49:27;99474.00;;;18.50
12875;BMP180;6505;51.114;13.128;2023-04-29T13:52:15;99484.00;;;18.50
12875;BMP180;6505;51.114;13.128;2023-04-29T13:54:46;99484.00;;;18.50
12875;BMP180;6505;51.114;13.128;2023-04-29T13:57:34;99480.00;;;18.50
12875;BMP180;6505;51.114;13.128;2023-04-29T14:00:08;99475.00;;;18.50
12875;BMP180;6505;51.114;13.128;2023-04-29T14:02:56;99482.00;;;18.50
12875;BMP180;6505;51.114;13.128;2023-04-29T14:05:27;99476.00;;;18.50
12875;BMP180;6505;51.114;13.128;2023-04-29T14:07:55;99482.00;;;18.50
12875;BMP180;6505;51.114;13.128;2023-04-29T14:10:23;99490.00;;;18.50
12875;BMP180;6505;51.114;13.128;2023-04-29T14:12:50;99485.00;;;18.50
12875;BMP180;6505;51.114;13.128;2023-04-29T14:15:20;99494.00;;;18.50
12875;BMP180;6505;51.114;13.128;2023-04-29T14:17:48;99492.00;;;18.50
12875;BMP180;6505;51.114;13.128;2023-04-29T14:20:17;99490.00;;;18.50
12875;BMP180;6505;51.114;13.128;2023-04-29T14:22:45;99496.00;;;18.50
12875;BMP180;6505;51.114;13.128;2023-04-29T14:25:13;99503.00;;;18.50
12875;BMP180;6505;51.114;13.128;2023-04-29T14:27:40;99505.00;;;18.50
12875;BMP180;6505;51.114;13.128;2023-04-29T14:30:09;99510.00;;;18.50
12875;BMP180;6505;51.114;13.128;2023-04-29T14:32:39;99513.00;;;18.50
12875;BMP180;6505;51.114;13.128;2023-04-29T14:35:08;99513.00;;;18.50
12875;BMP180;6505;51.114;13.128;2023-04-29T14:37:36;99515.00;;;18.60
12875;BMP180;6505;51.114;13.128;2023-04-29T14:40:05;99520.00;;;18.60
12875;BMP180;6505;51.114;13.128;2023-04-29T14:42:34;99515.00;;;18.60
12875;BMP180;6505;51.114;13.128;2023-04-29T14:45:03;99511.00;;;18.60
12875;BMP180;6505;51.114;13.128;2023-04-29T14:47:32;99519.00;;;18.60
12875;BMP180;6505;51.114;13.128;2023-04-29T14:50:02;99519.00;;;18.60
12875;BMP180;6505;51.114;13.128;2023-04-29T14:52:30;99528.00;;;18.60